Time,TemperatureF,DewpointF,PressureIn,WindDirection,WindDirectionDegrees,WindSpeedMPH,WindSpeedGustMPH,Humidity,HourlyPrecipIn,Conditions,Clouds,dailyrainin,SolarRadiationWatts/m^2,SoftwareType,DateUTC
2013-08-14 00:21:00,53.0,32.0,-100.00,North,10,7.0,12.0,45,0.00,,,0.12,0.000000,,2013-08-14 06:21:00,
2013-08-14 00:31:00,53.0,32.0,-100.00,North,10,7.0,12.0,45,0.00,,,0.12,0.000000,,2013-08-14 06:31:00,
2013-08-14 00:42:00,53.0,32.0,-100.00,North,10,7.0,12.0,45,0.00,,,0.12,0.000000,,2013-08-14 06:42:00,
2013-08-14 00:52:00,53.0,32.0,-100.00,North,10,7.0,12.0,45,0.00,,,0.12,0.000000,,2013-08-14 06:52:00,
2013-08-14 01:21:00,52.0,33.0,-100.00,NE,56,7.0,15.0,49,0.00,,,0.12,0.000000,,2013-08-14 07:21:00,
2013-08-14 01:31:00,52.0,33.0,-100.00,NE,56,7.0,15.0,49,0.00,,,0.12,0.000000,,2013-08-14 07:31:00,
2013-08-14 01:41:00,52.0,33.0,-100.00,NE,56,7.0,15.0,49,0.00,,,0.12,0.000000,,2013-08-14 07:41:00,
2013-08-14 01:52:00,52.0,33.0,-100.00,NE,56,7.0,15.0,49,0.00,,,0.12,0.000000,,2013-08-14 07:52:00,
2013-08-14 02:21:00,52.0,33.0,-100.00,NE,47,7.0,11.0,48,0.00,,,0.12,1.000000,,2013-08-14 08:21:00,
2013-08-14 02:31:00,52.0,33.0,-100.00,NE,47,7.0,11.0,48,0.00,,,0.12,1.000000,,2013-08-14 08:31:00,
2013-08-14 02:42:00,52.0,33.0,-100.00,NE,47,7.0,11.0,48,0.00,,,0.12,1.000000,,2013-08-14 08:42:00,
2013-08-14 02:51:00,52.0,33.0,-100.00,NE,47,7.0,11.0,48,0.00,,,0.12,1.000000,,2013-08-14 08:51:00,
2013-08-14 03:21:00,50.0,31.0,-100.00,SE,135,3.0,8.0,48,0.00,,,0.12,0.000000,,2013-08-14 09:21:00,
2013-08-14 03:33:00,50.0,31.0,-100.00,SE,135,3.0,8.0,48,0.00,,,0.12,0.000000,,2013-08-14 09:33:00,
2013-08-14 03:43:00,50.0,31.0,-100.00,SE,135,3.0,8.0,48,0.00,,,0.12,0.000000,,2013-08-14 09:43:00,
2013-08-14 03:52:00,50.0,31.0,-100.00,SE,135,3.0,8.0,48,0.00,,,0.12,0.000000,,2013-08-14 09:52:00,
2013-08-14 04:22:00,51.0,31.0,-100.00,SSE,164,4.0,6.0,47,0.00,,,0.12,1.000000,,2013-08-14 10:22:00,
2013-08-14 04:32:00,51.0,31.0,-100.00,SSE,164,4.0,6.0,47,0.00,,,0.12,1.000000,,2013-08-14 10:32:00,
2013-08-14 04:42:00,51.0,31.0,-100.00,SSE,164,4.0,6.0,47,0.00,,,0.12,1.000000,,2013-08-14 10:42:00,
2013-08-14 04:52:00,51.0,31.0,-100.00,SSE,164,4.0,6.0,47,0.00,,,0.12,1.000000,,2013-08-14 10:52:00,
2013-08-14 05:21:00,50.0,32.0,-100.00,SE,144,2.0,5.0,49,0.00,,,0.12,1.000000,,2013-08-14 11:21:00,
2013-08-14 05:32:00,50.0,32.0,-100.00,SE,144,2.0,5.0,49,0.00,,,0.12,1.000000,,2013-08-14 11:32:00,
2013-08-14 05:41:00,50.0,32.0,-100.00,SE,144,2.0,5.0,49,0.00,,,0.12,1.000000,,2013-08-14 11:41:00,
2013-08-14 05:51:00,50.0,32.0,-100.00,SE,144,2.0,5.0,49,0.00,,,0.12,1.000000,,2013-08-14 11:51:00,
2013-08-14 06:21:00,51.0,32.0,-100.00,East,80,2.0,4.0,48,0.00,,,0.12,0.000000,,2013-08-14 12:21:00,
2013-08-14 06:31:00,51.0,32.0,-100.00,East,80,2.0,4.0,48,0.00,,,0.12,0.000000,,2013-08-14 12:31:00,
2013-08-14 06:42:00,51.0,32.0,-100.00,East,80,2.0,4.0,48,0.00,,,0.12,0.000000,,2013-08-14 12:42:00,
2013-08-14 07:21:00,50.0,33.0,-100.00,West,272,2.0,6.0,52,0.00,,,0.12,9.000000,,2013-08-14 13:21:00,
2013-08-14 07:31:00,50.0,33.0,-100.00,West,272,2.0,6.0,52,0.00,,,0.12,9.000000,,2013-08-14 13:31:00,
2013-08-14 07:41:00,50.0,33.0,-100.00,West,272,2.0,6.0,52,0.00,,,0.12,9.000000,,2013-08-14 13:41:00,
2013-08-14 07:52:00,50.0,33.0,-100.00,West,272,2.0,6.0,52,0.00,,,0.12,9.000000,,2013-08-14 13:52:00,
2013-08-14 08:21:00,58.0,38.0,-100.00,ESE,123,3.0,4.0,47,0.00,,,0.12,147.000000,,2013-08-14 14:21:00,
2013-08-14 08:32:00,58.0,38.0,-100.00,ESE,123,3.0,4.0,47,0.00,,,0.12,147.000000,,2013-08-14 14:32:00,
2013-08-14 08:42:00,58.0,38.0,-100.00,ESE,123,3.0,4.0,47,0.00,,,0.12,147.000000,,2013-08-14 14:42:00,
2013-08-14 08:52:00,58.0,38.0,-100.00,ESE,123,3.0,4.0,47,0.00,,,0.12,147.000000,,2013-08-14 14:52:00,
2013-08-14 08:55:00,61.0,36.0,-100.00,SE,143,3.0,5.0,39,0.00,,,0.12,356.000000,,2013-08-14 14:55:00,
2013-08-14 09:22:00,61.0,36.0,-100.00,SE,143,3.0,5.0,39,0.00,,,0.12,356.000000,,2013-08-14 15:22:00,
2013-08-14 09:33:00,61.0,36.0,-100.00,SE,143,3.0,5.0,39,0.00,,,0.12,356.000000,,2013-08-14 15:33:00,
2013-08-14 09:43:00,61.0,36.0,-100.00,SE,143,3.0,5.0,39,0.00,,,0.12,356.000000,,2013-08-14 15:43:00,
2013-08-14 09:55:00,63.0,38.0,-100.00,South,184,4.0,6.0,40,0.00,,,0.12,556.000000,,2013-08-14 15:55:00,
2013-08-14 10:27:00,63.0,38.0,-100.00,South,184,4.0,6.0,40,0.00,,,0.12,556.000000,,2013-08-14 16:27:00,
2013-08-14 10:33:00,63.0,38.0,-100.00,South,184,4.0,6.0,40,0.00,,,0.12,556.000000,,2013-08-14 16:33:00,
2013-08-14 10:42:00,63.0,38.0,-100.00,South,184,4.0,6.0,40,0.00,,,0.12,556.000000,,2013-08-14 16:42:00,
2013-08-14 10:55:00,65.0,37.0,-100.00,WNW,297,5.0,8.0,35,0.00,,,0.12,726.000000,,2013-08-14 16:55:00,
2013-08-14 11:29:00,65.0,37.0,-100.00,WNW,297,5.0,8.0,35,0.00,,,0.12,726.000000,,2013-08-14 17:29:00,
2013-08-14 11:35:00,65.0,37.0,-100.00,WNW,297,5.0,8.0,35,0.00,,,0.12,726.000000,,2013-08-14 17:35:00,
2013-08-14 11:44:00,65.0,37.0,-100.00,WNW,297,5.0,8.0,35,0.00,,,0.12,726.000000,,2013-08-14 17:44:00,
2013-08-14 11:55:00,-999.0,-99.9,-100.00,WSW,247,8.0,14.0,-999,-99.99,,,-99.99,779.000000,,2013-08-14 17:55:00,
2013-08-14 12:31:00,65.0,34.0,-100.00,WSW,247,8.0,14.0,31,0.00,,,0.12,779.000000,,2013-08-14 18:31:00,
2013-08-14 12:40:00,65.0,34.0,-100.00,WSW,247,8.0,14.0,31,0.00,,,0.12,779.000000,,2013-08-14 18:40:00,
2013-08-14 12:54:00,65.0,34.0,-100.00,WSW,247,8.0,14.0,31,0.00,,,0.12,779.000000,,2013-08-14 18:54:00,
2013-08-14 13:27:00,67.0,33.0,-100.00,West,270,11.0,20.0,28,0.00,,,-99.99,673.000000,,2013-08-14 19:27:00,
2013-08-14 13:35:00,67.0,33.0,-100.00,West,270,11.0,20.0,28,0.00,,,-99.99,673.000000,,2013-08-14 19:35:00,
2013-08-14 13:42:00,67.0,33.0,-100.00,West,270,11.0,20.0,28,0.00,,,-99.99,673.000000,,2013-08-14 19:42:00,
2013-08-14 13:52:00,67.0,33.0,-100.00,West,270,11.0,20.0,28,0.00,,,-99.99,673.000000,,2013-08-14 19:52:00,
2013-08-14 14:34:00,65.0,31.0,-100.00,West,272,7.0,18.0,28,0.00,,,0.00,385.000000,,2013-08-14 20:34:00,
2013-08-14 14:48:00,65.0,31.0,-100.00,West,272,7.0,18.0,28,0.00,,,0.00,385.000000,,2013-08-14 20:48:00,
2013-08-14 14:55:00,67.0,22.0,-100.00,WNW,299,9.0,19.0,18,0.00,,,0.00,765.000000,,2013-08-14 20:55:00,
2013-08-14 15:23:00,67.0,22.0,-100.00,WNW,299,9.0,19.0,18,0.00,,,0.00,765.000000,,2013-08-14 21:23:00,
2013-08-14 15:34:00,67.0,22.0,-100.00,WNW,299,9.0,19.0,18,0.00,,,0.00,765.000000,,2013-08-14 21:34:00,
2013-08-14 15:45:00,67.0,22.0,-100.00,WNW,299,9.0,19.0,18,0.00,,,0.00,765.000000,,2013-08-14 21:45:00,
2013-08-14 16:23:00,66.0,29.0,-100.00,SSW,205,8.0,23.0,25,0.00,,,0.00,350.000000,,2013-08-14 22:23:00,
2013-08-14 16:35:00,66.0,29.0,-100.00,SSW,205,8.0,23.0,25,0.00,,,0.00,350.000000,,2013-08-14 22:35:00,
2013-08-14 16:44:00,66.0,29.0,-100.00,SSW,205,8.0,23.0,25,0.00,,,0.00,350.000000,,2013-08-14 22:44:00,
2013-08-14 16:54:00,66.0,29.0,-100.00,SSW,205,8.0,23.0,25,0.00,,,0.00,350.000000,,2013-08-14 22:54:00,
2013-08-14 16:55:00,65.0,30.0,-100.00,SSW,193,10.0,17.0,27,0.00,,,0.00,477.000000,,2013-08-14 22:55:00,
2013-08-14 17:24:00,65.0,30.0,-100.00,SSW,193,10.0,17.0,27,0.00,,,0.00,477.000000,,2013-08-14 23:24:00,
2013-08-14 17:37:00,65.0,30.0,-100.00,SSW,193,10.0,17.0,27,0.00,,,0.00,477.000000,,2013-08-14 23:37:00,
2013-08-14 17:46:00,65.0,30.0,-100.00,SSW,193,10.0,17.0,27,0.00,,,0.00,477.000000,,2013-08-14 23:46:00,
2013-08-14 18:23:00,67.0,29.0,-100.00,West,275,6.0,16.0,24,0.00,,,0.00,512.000000,,2013-08-15 00:23:00,
2013-08-14 18:32:00,67.0,29.0,-100.00,West,275,6.0,16.0,24,0.00,,,0.00,512.000000,,2013-08-15 00:32:00,
2013-08-14 18:43:00,67.0,29.0,-100.00,West,275,6.0,16.0,24,0.00,,,0.00,512.000000,,2013-08-15 00:43:00,
2013-08-14 18:52:00,67.0,29.0,-100.00,West,275,6.0,16.0,24,0.00,,,0.00,512.000000,,2013-08-15 00:52:00,
2013-08-14 19:22:00,61.0,29.0,-100.00,WNW,287,7.0,12.0,30,0.00,,,0.00,155.000000,,2013-08-15 01:22:00,
2013-08-14 19:32:00,61.0,29.0,-100.00,WNW,287,7.0,12.0,30,0.00,,,0.00,155.000000,,2013-08-15 01:32:00,
2013-08-14 19:42:00,61.0,29.0,-100.00,WNW,287,7.0,12.0,30,0.00,,,0.00,155.000000,,2013-08-15 01:42:00,
2013-08-14 19:52:00,61.0,29.0,-100.00,WNW,287,7.0,12.0,30,0.00,,,0.00,155.000000,,2013-08-15 01:52:00,
2013-08-14 20:21:00,57.0,29.0,-100.00,NE,34,8.0,22.0,34,0.00,,,0.00,36.000000,,2013-08-15 02:21:00,
2013-08-14 20:31:00,57.0,29.0,-100.00,NE,34,8.0,22.0,34,0.00,,,0.00,36.000000,,2013-08-15 02:31:00,
2013-08-14 20:42:00,57.0,29.0,-100.00,NE,34,8.0,22.0,34,0.00,,,0.00,36.000000,,2013-08-15 02:42:00,
2013-08-14 20:52:00,57.0,29.0,-100.00,NE,34,8.0,22.0,34,0.00,,,0.00,36.000000,,2013-08-15 02:52:00,
2013-08-14 21:22:00,56.0,29.0,-100.00,NE,46,6.0,10.0,36,0.00,,,0.00,4.000000,,2013-08-15 03:22:00,
2013-08-14 21:33:00,56.0,29.0,-100.00,NE,46,6.0,10.0,36,0.00,,,0.00,4.000000,,2013-08-15 03:33:00,
2013-08-14 21:43:00,56.0,29.0,-100.00,NE,46,6.0,10.0,36,0.00,,,0.00,4.000000,,2013-08-15 03:43:00,
2013-08-14 21:53:00,56.0,29.0,-100.00,NE,46,6.0,10.0,36,0.00,,,0.00,4.000000,,2013-08-15 03:53:00,
2013-08-14 22:22:00,55.0,26.0,-100.00,NNE,29,3.0,6.0,33,0.00,,,0.00,1.000000,,2013-08-15 04:22:00,
2013-08-14 22:32:00,55.0,26.0,-100.00,NNE,29,3.0,6.0,33,0.00,,,0.00,1.000000,,2013-08-15 04:32:00,
2013-08-14 22:43:00,55.0,26.0,-100.00,NNE,29,3.0,6.0,33,0.00,,,0.00,1.000000,,2013-08-15 04:43:00,
2013-08-14 22:52:00,55.0,26.0,-100.00,NNE,29,3.0,6.0,33,0.00,,,0.00,1.000000,,2013-08-15 04:52:00,
2013-08-14 23:22:00,55.0,26.0,-100.00,North,354,2.0,5.0,32,0.00,,,-99.99,1.000000,,2013-08-15 05:22:00,
2013-08-14 23:32:00,55.0,26.0,-100.00,North,354,2.0,5.0,32,0.00,,,-99.99,1.000000,,2013-08-15 05:32:00,
2013-08-14 23:42:00,55.0,26.0,-100.00,North,354,2.0,5.0,32,0.00,,,-99.99,1.000000,,2013-08-15 05:42:00,
2013-08-14 23:52:00,55.0,26.0,-100.00,North,354,2.0,5.0,32,0.00,,,-99.99,1.000000,,2013-08-15 05:52:00,